メインページ
METAR-TAF:

METAR-TAF

空港 :

キュラソー島, オランダ領アンティル

ハト国際空港

緯度: 12-12N, 経度: 068-58W, 海抜: 9m

現時点の気象観測

当レポートは26分前の21:00(UTC)に作成
東/南東の風 18kt
気温 30°C
湿度 66%
気圧 1008 hPa
視程10km以上
高度2000ftの雲はほとんどない

METAR: TNCC 202100Z 11018KT 9999 FEW020 30/23 Q1008 NOSIG

時間: 17:26 (21:26 UTC)

予報

当レポートは5時間26分前の16:00(UTC)に作成
予報は20日の 18時(UTC)から 21日の 18時(UTC)まで有効
の風 20kt、最大30ktの突風を伴う
視程10km以上
高度2000ftの雲は散在している
20日の 08時(UTC)から 20日の 16時(UTC)まで一時的に
視程: 7000m
高度1500ftの千切れ雲あり
にわか雨

TAF: TNCC 201600Z 2018/2118 10020G30KT 9999 SCT020 TEMPO 2008/2016 7000 SHRA BKN015

4,000以上の空港の気象観測と天気予報(METAR報とTAF報)

利用可能な観測所は地図上に黄色い丸と赤い丸で示す。

丸の上にカーソルを重ねると観測所名を参照できる。

次にクリックすると気象観測と天気予報を参照できる。

マップの切り替え:黒色「×」印の緑ボタンをクリックして拡大、「-」印の緑ボタンをクリックして縮小、緑色の三角印をクリックして隣りの地図に切り替え


METAR-TAF: